HAZ6473 ZSHC-OTHH
Flight info
| Callsign | HAZ6473 |
|---|---|
| Flight time | N/A |
| Altitude | 40000 |
| Route | NIVIK8D NIVIK W135 LUPVI R343 WHA A581 TAXOR/K0917S1040 A581 SGM A599 LINSO/N0496F340 A599 CTG B465 SUMAG/N0491F360 B465 CEA A791 BPL L639 GUREV/N0484F380 L639 RASKI L301 RAGMA N571 MENSA/N0494F340 N571 IVOXI P699 EGTAG DCT RORON M430 TOSNA |
| Aircraft | A339/H-SADE1E2E3GHIJ3J5M1P2RWXY/LB2D1 |
Departure
| Time | N/A |
|---|---|
| Airport | Hangzhou Xiaoshan International Airport (ZSHC) |
Arrival
| Time | 2026-05-05 01:00 |
|---|---|
| Airport | Hamad International Airport (OTHH) |
| Time | Latitude | Longitude | Altitude | Speed | Heading |
|---|---|---|---|---|---|
| 2026-05-05 00:03 | 24.85928 | 56.83020 | 39708 ft | 432 kts | 289° |
| 2026-05-05 00:03 | 24.87064 | 56.79966 | 39716 ft | 432 kts | 289° |
| 2026-05-05 00:04 | 24.89332 | 56.73854 | 39698 ft | 432 kts | 289° |
| 2026-05-05 00:04 | 24.91595 | 56.67747 | 39725 ft | 432 kts | 289° |
| 2026-05-05 00:05 | 24.93852 | 56.61639 | 39720 ft | 432 kts | 289° |
| 2026-05-05 00:05 | 24.96110 | 56.55503 | 39721 ft | 431 kts | 288° |
| 2026-05-05 00:06 | 24.98080 | 56.49270 | 39722 ft | 430 kts | 286° |
| 2026-05-05 00:06 | 24.99972 | 56.43031 | 39722 ft | 430 kts | 286° |
| 2026-05-05 00:07 | 25.01856 | 56.36794 | 39740 ft | 430 kts | 286° |
| 2026-05-05 00:07 | 25.03743 | 56.30545 | 39726 ft | 431 kts | 285° |
| 2026-05-05 00:08 | 25.05638 | 56.24271 | 39726 ft | 432 kts | 285° |
| 2026-05-05 00:08 | 25.07509 | 56.18051 | 39723 ft | 430 kts | 285° |
| 2026-05-05 00:09 | 25.09267 | 56.11745 | 39741 ft | 429 kts | 282° |
| 2026-05-05 00:09 | 25.10477 | 56.05346 | 39749 ft | 427 kts | 277° |
| 2026-05-05 00:10 | 25.11295 | 55.98878 | 39782 ft | 427 kts | 276° |
| 2026-05-05 00:10 | 25.12089 | 55.92405 | 39793 ft | 427 kts | 276° |
| 2026-05-05 00:11 | 25.12880 | 55.85916 | 39777 ft | 427 kts | 276° |
| 2026-05-05 00:11 | 25.13669 | 55.79447 | 39760 ft | 427 kts | 277° |
| 2026-05-05 00:12 | 25.14786 | 55.72995 | 39743 ft | 428 kts | 280° |
| 2026-05-05 00:12 | 25.16097 | 55.66604 | 39740 ft | 428 kts | 281° |
| 2026-05-05 00:13 | 25.17405 | 55.60215 | 39735 ft | 428 kts | 281° |
| 2026-05-05 00:13 | 25.18719 | 55.53808 | 39728 ft | 429 kts | 280° |
| 2026-05-05 00:14 | 25.19729 | 55.47346 | 39730 ft | 428 kts | 275° |
| 2026-05-05 00:14 | 25.20103 | 55.40817 | 39729 ft | 426 kts | 269° |
| 2026-05-05 00:15 | 25.19834 | 55.34299 | 39727 ft | 424 kts | 263° |
| 2026-05-05 00:15 | 25.18999 | 55.27890 | 39725 ft | 425 kts | 260° |
| 2026-05-05 00:16 | 25.18046 | 55.21478 | 39715 ft | 425 kts | 260° |
| 2026-05-05 00:16 | 25.17090 | 55.15041 | 39736 ft | 425 kts | 261° |
| 2026-05-05 00:17 | 25.16370 | 55.08622 | 39722 ft | 425 kts | 262° |
| 2026-05-05 00:17 | 25.15693 | 55.02152 | 39724 ft | 425 kts | 263° |
| 2026-05-05 00:18 | 25.15378 | 54.95617 | 39742 ft | 427 kts | 268° |
| 2026-05-05 00:18 | 25.15637 | 54.89066 | 39734 ft | 428 kts | 274° |
| 2026-05-05 00:19 | 25.16349 | 54.82569 | 39737 ft | 428 kts | 275° |
| 2026-05-05 00:19 | 25.17105 | 54.76051 | 39726 ft | 428 kts | 275° |
| 2026-05-05 00:20 | 25.17855 | 54.69578 | 39716 ft | 428 kts | 275° |
| 2026-05-05 00:20 | 25.18607 | 54.63060 | 39733 ft | 429 kts | 275° |
| 2026-05-05 00:21 | 25.19356 | 54.56544 | 39720 ft | 427 kts | 275° |
| 2026-05-05 00:21 | 25.20096 | 54.50065 | 39692 ft | 428 kts | 275° |
| 2026-05-05 00:22 | 25.20839 | 54.43554 | 39719 ft | 428 kts | 275° |
| 2026-05-05 00:22 | 25.21575 | 54.37076 | 39719 ft | 427 kts | 275° |
| 2026-05-05 00:23 | 25.22310 | 54.30565 | 39697 ft | 428 kts | 275° |
| 2026-05-05 00:23 | 25.23045 | 54.24048 | 39688 ft | 428 kts | 275° |
| 2026-05-05 00:24 | 25.23773 | 54.17555 | 39705 ft | 427 kts | 275° |
| 2026-05-05 00:24 | 25.24501 | 54.11037 | 39700 ft | 427 kts | 275° |
| 2026-05-05 00:25 | 25.25222 | 54.04550 | 39719 ft | 427 kts | 275° |
| 2026-05-05 00:25 | 25.25944 | 53.98043 | 39710 ft | 428 kts | 275° |
| 2026-05-05 00:26 | 25.26661 | 53.91556 | 39708 ft | 427 kts | 275° |
| 2026-05-05 00:26 | 25.27374 | 53.85062 | 39699 ft | 427 kts | 275° |
| 2026-05-05 00:27 | 25.28085 | 53.78569 | 39699 ft | 426 kts | 275° |
| 2026-05-05 00:27 | 25.28792 | 53.72074 | 39721 ft | 427 kts | 275° |
| 2026-05-05 00:28 | 25.29497 | 53.65573 | 39719 ft | 426 kts | 275° |
| 2026-05-05 00:28 | 25.30198 | 53.59086 | 39712 ft | 427 kts | 275° |
| 2026-05-05 00:29 | 25.30894 | 53.52616 | 39453 ft | 426 kts | 275° |
| 2026-05-05 00:29 | 25.31241 | 53.49379 | 39136 ft | 423 kts | 275° |
| 2026-05-05 00:29 | 25.31588 | 53.46144 | 38809 ft | 420 kts | 275° |
| 2026-05-05 00:29 | 25.31925 | 53.42982 | 38490 ft | 417 kts | 275° |
| 2026-05-05 00:30 | 25.32263 | 53.39800 | 38190 ft | 417 kts | 275° |
| 2026-05-05 00:30 | 25.32602 | 53.36602 | 37907 ft | 417 kts | 274° |
| 2026-05-05 00:30 | 25.32936 | 53.33424 | 37628 ft | 418 kts | 274° |
| 2026-05-05 00:30 | 25.33266 | 53.30287 | 37355 ft | 418 kts | 274° |
| 2026-05-05 00:31 | 25.33606 | 53.27062 | 37069 ft | 418 kts | 274° |
| 2026-05-05 00:31 | 25.33935 | 53.23895 | 36800 ft | 418 kts | 273° |
| 2026-05-05 00:31 | 25.34155 | 53.20677 | 36517 ft | 418 kts | 271° |
| 2026-05-05 00:31 | 25.34224 | 53.17492 | 36233 ft | 418 kts | 268° |
| 2026-05-05 00:32 | 25.34146 | 53.14311 | 35957 ft | 418 kts | 265° |
| 2026-05-05 00:32 | 25.33917 | 53.11082 | 35680 ft | 418 kts | 263° |
| 2026-05-05 00:32 | 25.33542 | 53.07903 | 35393 ft | 419 kts | 260° |
| 2026-05-05 00:32 | 25.33043 | 53.04752 | 35123 ft | 418 kts | 259° |
| 2026-05-05 00:33 | 25.32523 | 53.01603 | 34848 ft | 419 kts | 259° |
| 2026-05-05 00:33 | 25.31996 | 52.98415 | 34564 ft | 420 kts | 259° |
| 2026-05-05 00:33 | 25.31473 | 52.95262 | 34290 ft | 421 kts | 259° |
| 2026-05-05 00:33 | 25.30944 | 52.92088 | 33992 ft | 423 kts | 259° |
| 2026-05-05 00:34 | 25.30410 | 52.88898 | 33638 ft | 425 kts | 259° |
| 2026-05-05 00:34 | 25.29866 | 52.85671 | 33201 ft | 427 kts | 259° |
| 2026-05-05 00:34 | 25.29325 | 52.82465 | 32704 ft | 427 kts | 259° |
| 2026-05-05 00:34 | 25.28779 | 52.79228 | 32218 ft | 428 kts | 259° |
| 2026-05-05 00:35 | 25.28266 | 52.76030 | 31658 ft | 428 kts | 262° |
| 2026-05-05 00:35 | 25.27984 | 52.72733 | 31028 ft | 430 kts | 267° |
| 2026-05-05 00:35 | 25.27982 | 52.69457 | 30401 ft | 432 kts | 272° |
| 2026-05-05 00:35 | 25.28252 | 52.66179 | 29783 ft | 433 kts | 277° |
| 2026-05-05 00:36 | 25.28804 | 52.62893 | 29204 ft | 434 kts | 282° |
| 2026-05-05 00:36 | 25.29632 | 52.59688 | 28605 ft | 435 kts | 287° |
| 2026-05-05 00:36 | 25.30694 | 52.56588 | 27889 ft | 440 kts | 291° |
| 2026-05-05 00:36 | 25.31968 | 52.53492 | 27129 ft | 445 kts | 294° |
| 2026-05-05 00:37 | 25.33407 | 52.50483 | 26608 ft | 443 kts | 297° |
| 2026-05-05 00:37 | 25.34890 | 52.47519 | 26139 ft | 439 kts | 297° |
| 2026-05-05 00:37 | 25.36365 | 52.44583 | 25678 ft | 436 kts | 297° |
| 2026-05-05 00:37 | 25.37822 | 52.41687 | 25209 ft | 433 kts | 297° |
| 2026-05-05 00:38 | 25.39278 | 52.38789 | 24752 ft | 430 kts | 297° |
| 2026-05-05 00:38 | 25.40735 | 52.35885 | 24292 ft | 428 kts | 297° |
| 2026-05-05 00:38 | 25.42155 | 52.33049 | 23844 ft | 425 kts | 297° |
| 2026-05-05 00:38 | 25.43589 | 52.30184 | 23384 ft | 423 kts | 297° |
| 2026-05-05 00:39 | 25.45012 | 52.27343 | 22927 ft | 420 kts | 297° |
| 2026-05-05 00:39 | 25.46423 | 52.24525 | 22474 ft | 418 kts | 297° |
| 2026-05-05 00:39 | 25.47827 | 52.21718 | 22023 ft | 416 kts | 297° |
| 2026-05-05 00:39 | 25.49221 | 52.18924 | 21574 ft | 414 kts | 297° |
| 2026-05-05 00:40 | 25.50599 | 52.16159 | 21140 ft | 412 kts | 298° |
| 2026-05-05 00:40 | 25.51985 | 52.13378 | 20711 ft | 410 kts | 298° |
| 2026-05-05 00:40 | 25.53342 | 52.10654 | 20283 ft | 408 kts | 298° |
| 2026-05-05 00:40 | 25.54712 | 52.07904 | 19854 ft | 405 kts | 298° |
| 2026-05-05 00:41 | 25.56070 | 52.05179 | 19429 ft | 403 kts | 298° |
| 2026-05-05 00:41 | 25.57410 | 52.02484 | 19007 ft | 401 kts | 298° |
| 2026-05-05 00:41 | 25.58738 | 51.99785 | 18577 ft | 399 kts | 296° |
| 2026-05-05 00:41 | 25.59565 | 51.96852 | 18103 ft | 397 kts | 277° |
| 2026-05-05 00:42 | 25.59455 | 51.93828 | 17664 ft | 396 kts | 259° |
| 2026-05-05 00:42 | 25.58497 | 51.90993 | 17221 ft | 396 kts | 242° |
| 2026-05-05 00:42 | 25.56785 | 51.88614 | 16782 ft | 398 kts | 224° |
| 2026-05-05 00:42 | 25.54698 | 51.86649 | 16352 ft | 397 kts | 222° |
| 2026-05-05 00:43 | 25.52569 | 51.84665 | 15896 ft | 396 kts | 222° |
| 2026-05-05 00:43 | 25.50593 | 51.82605 | 15438 ft | 392 kts | 234° |
| 2026-05-05 00:43 | 25.49286 | 51.80004 | 14915 ft | 386 kts | 253° |
| 2026-05-05 00:43 | 25.48776 | 51.77099 | 14575 ft | 379 kts | 268° |
| 2026-05-05 00:44 | 25.48664 | 51.74208 | 14181 ft | 377 kts | 269° |
| 2026-05-05 00:44 | 25.48559 | 51.71336 | 13718 ft | 376 kts | 269° |
| 2026-05-05 00:44 | 25.48443 | 51.68449 | 13317 ft | 375 kts | 269° |
| 2026-05-05 00:44 | 25.48315 | 51.65556 | 12901 ft | 373 kts | 269° |
| 2026-05-05 00:45 | 25.48184 | 51.62723 | 12471 ft | 372 kts | 269° |
| 2026-05-05 00:45 | 25.48050 | 51.59866 | 12047 ft | 371 kts | 269° |
| 2026-05-05 00:45 | 25.47912 | 51.57019 | 11624 ft | 370 kts | 270° |
| 2026-05-05 00:45 | 25.47775 | 51.54200 | 11193 ft | 369 kts | 270° |
| 2026-05-05 00:46 | 25.47636 | 51.51373 | 11001 ft | 361 kts | 270° |
| 2026-05-05 00:46 | 25.47501 | 51.48648 | 11014 ft | 356 kts | 270° |
| 2026-05-05 00:46 | 25.47368 | 51.45937 | 10942 ft | 353 kts | 270° |
| 2026-05-05 00:46 | 25.47184 | 51.43215 | 10947 ft | 354 kts | 263° |
| 2026-05-05 00:47 | 25.46242 | 51.40669 | 10950 ft | 363 kts | 237° |
| 2026-05-05 00:47 | 25.44359 | 51.38800 | 10967 ft | 372 kts | 212° |
| 2026-05-05 00:47 | 25.41843 | 51.37958 | 10983 ft | 379 kts | 186° |
| 2026-05-05 00:47 | 25.39267 | 51.38344 | 10992 ft | 371 kts | 160° |
| 2026-05-05 00:48 | 25.37151 | 51.39843 | 10986 ft | 356 kts | 134° |
| 2026-05-05 00:48 | 25.35458 | 51.41793 | 10894 ft | 346 kts | 139° |
| 2026-05-05 00:48 | 25.33489 | 51.43235 | 10668 ft | 342 kts | 153° |
| 2026-05-05 00:48 | 25.31330 | 51.44331 | 10460 ft | 337 kts | 158° |
| 2026-05-05 00:49 | 25.29151 | 51.45292 | 10228 ft | 333 kts | 159° |
| 2026-05-05 00:49 | 25.27004 | 51.46211 | 10018 ft | 329 kts | 159° |
| 2026-05-05 00:49 | 25.24868 | 51.47134 | 9810 ft | 324 kts | 159° |
| 2026-05-05 00:49 | 25.22786 | 51.48043 | 9614 ft | 320 kts | 159° |
| 2026-05-05 00:50 | 25.20698 | 51.48963 | 9421 ft | 316 kts | 158° |
| 2026-05-05 00:50 | 25.18680 | 51.49853 | 9246 ft | 312 kts | 158° |
| 2026-05-05 00:50 | 25.16666 | 51.50745 | 9073 ft | 308 kts | 159° |
| 2026-05-05 00:50 | 25.14681 | 51.51622 | 8897 ft | 305 kts | 159° |
| 2026-05-05 00:51 | 25.12718 | 51.52486 | 8728 ft | 301 kts | 159° |
| 2026-05-05 00:51 | 25.10771 | 51.53342 | 8555 ft | 297 kts | 158° |
| 2026-05-05 00:51 | 25.08879 | 51.54176 | 8387 ft | 293 kts | 158° |
| 2026-05-05 00:51 | 25.06993 | 51.55007 | 8215 ft | 290 kts | 158° |
| 2026-05-05 00:52 | 25.05116 | 51.55833 | 8028 ft | 288 kts | 158° |
| 2026-05-05 00:52 | 25.03261 | 51.56649 | 7665 ft | 286 kts | 158° |
| 2026-05-05 00:52 | 25.01411 | 51.57464 | 7115 ft | 289 kts | 158° |
| 2026-05-05 00:52 | 24.99640 | 51.58518 | 6572 ft | 288 kts | 132° |
| 2026-05-05 00:53 | 24.98637 | 51.60336 | 6146 ft | 274 kts | 97° |
| 2026-05-05 00:53 | 24.98721 | 51.62327 | 5689 ft | 259 kts | 62° |
| 2026-05-05 00:53 | 24.99640 | 51.63985 | 5222 ft | 251 kts | 51° |
| 2026-05-05 00:53 | 25.00594 | 51.65622 | 4764 ft | 252 kts | 56° |
| 2026-05-05 00:54 | 25.01402 | 51.67301 | 4320 ft | 251 kts | 60° |
| 2026-05-05 00:54 | 25.02268 | 51.68938 | 3886 ft | 244 kts | 40° |
| 2026-05-05 00:54 | 25.03720 | 51.69747 | 3536 ft | 231 kts | 2° |
| 2026-05-05 00:54 | 25.05250 | 51.69505 | 3480 ft | 214 kts | 343° |
| 2026-05-05 00:55 | 25.06582 | 51.68964 | 3463 ft | 195 kts | 340° |
| 2026-05-05 00:55 | 25.07809 | 51.68401 | 3466 ft | 186 kts | 339° |
| 2026-05-05 00:55 | 25.08984 | 51.67858 | 3311 ft | 179 kts | 340° |
| 2026-05-05 00:55 | 25.10121 | 51.67342 | 3084 ft | 175 kts | 340° |
| 2026-05-05 00:56 | 25.11244 | 51.66840 | 2874 ft | 168 kts | 341° |
| 2026-05-05 00:56 | 25.12293 | 51.66375 | 2657 ft | 159 kts | 341° |
| 2026-05-05 00:56 | 25.13292 | 51.65934 | 2450 ft | 153 kts | 341° |
| 2026-05-05 00:56 | 25.14275 | 51.65502 | 2270 ft | 150 kts | 341° |
| 2026-05-05 00:57 | 25.15245 | 51.65076 | 2088 ft | 149 kts | 341° |
| 2026-05-05 00:57 | 25.16212 | 51.64651 | 1906 ft | 148 kts | 341° |
| 2026-05-05 00:57 | 25.17161 | 51.64233 | 1724 ft | 148 kts | 341° |
| 2026-05-05 00:57 | 25.18118 | 51.63812 | 1534 ft | 147 kts | 341° |
| 2026-05-05 00:58 | 25.19077 | 51.63389 | 1339 ft | 147 kts | 341° |
| 2026-05-05 00:58 | 25.20025 | 51.62971 | 1151 ft | 146 kts | 340° |
| 2026-05-05 00:58 | 25.20985 | 51.62548 | 960 ft | 146 kts | 340° |
| 2026-05-05 00:58 | 25.21919 | 51.62134 | 766 ft | 146 kts | 340° |
| 2026-05-05 00:59 | 25.22875 | 51.61713 | 559 ft | 145 kts | 339° |
| 2026-05-05 00:59 | 25.23812 | 51.61300 | 361 ft | 145 kts | 339° |
| 2026-05-05 00:59 | 25.24753 | 51.60884 | 205 ft | 146 kts | 338° |
| 2026-05-05 00:59 | 25.25697 | 51.60471 | 32 ft | 145 kts | 339° |
| 2026-05-05 01:00 | 25.26516 | 51.60108 | 27 ft | 101 kts | 338° |
| 2026-05-05 01:00 | 25.27002 | 51.59896 | 31 ft | 53 kts | 336° |
| 2026-05-05 01:00 | 25.27282 | 51.59818 | 31 ft | 36 kts | 359° |
| 2026-05-05 01:00 | 25.27447 | 51.59840 | 31 ft | 8 kts | 13° |
| 2026-05-05 01:01 | 25.27470 | 51.59881 | 31 ft | 6 kts | 111° |
| 2026-05-05 01:01 | 25.27432 | 51.59919 | 31 ft | 7 kts | 156° |
| 2026-05-05 01:01 | 25.27376 | 51.59936 | 31 ft | 9 kts | 161° |
| 2026-05-05 01:01 | 25.27303 | 51.59967 | 31 ft | 13 kts | 159° |
| 2026-05-05 01:02 | 25.27202 | 51.60011 | 30 ft | 17 kts | 158° |
| 2026-05-05 01:02 | 25.27079 | 51.60065 | 30 ft | 20 kts | 158° |
| 2026-05-05 01:02 | 25.26959 | 51.60128 | 30 ft | 11 kts | 129° |
| 2026-05-05 01:02 | 25.26963 | 51.60205 | 30 ft | 10 kts | 70° |
| 2026-05-05 01:03 | 25.26987 | 51.60284 | 31 ft | 9 kts | 86° |
| 2026-05-05 01:03 | 25.26955 | 51.60331 | 30 ft | 8 kts | 150° |
| 2026-05-05 01:03 | 25.26895 | 51.60360 | 30 ft | 9 kts | 156° |
| 2026-05-05 01:03 | 25.26820 | 51.60394 | 29 ft | 16 kts | 159° |
| 2026-05-05 01:04 | 25.26695 | 51.60448 | 28 ft | 18 kts | 157° |
| 2026-05-05 01:04 | 25.26690 | 51.60611 | 26 ft | 11 kts | 82° |
| 2026-05-05 01:04 | 25.26662 | 51.60704 | 24 ft | 13 kts | 114° |
| 2026-05-05 01:05 | 25.26632 | 51.60785 | 23 ft | 6 kts | 101° |
| 2026-05-05 01:05 | 25.26653 | 51.60811 | 24 ft | 5 kts | 25° |
| 2026-05-05 01:05 | 25.26685 | 51.60825 | 24 ft | 5 kts | 21° |
| 2026-05-05 01:05 | 25.26710 | 51.60835 | 24 ft | 2 kts | 22° |
| 2026-05-05 01:06 | 25.26715 | 51.60838 | 24 ft | 1 kts | 23° |
| 2026-05-05 01:06 | 25.26716 | 51.60838 | 24 ft | 0 kts | 23° |